Terminal Aerodrome Forecast
Issued by NWS Springfield, MO

Home | Current Version | Previous Version | Text Only | Print | Product List | Glossary On
Versions: 1 2 3 4 5 6 7 8 9 10 11 12 13 14 15 16 17 18 19 20 21 22 23
000
FTUS43 KSGF 231700
TAFSGF
TAF
KSGF 231720Z 2318/2418 30005KT P6SM FEW030
     FM240200 23007KT P6SM SCT200
     FM241300 27008KT P6SM SCT004=

USA.gov is the U.S. government's official web portal to all federal, state and local government web resources and services.